sensor_id;sensor_type;location;lat;lon;timestamp;P1;durP1;ratioP1;P2;durP2;ratioP2
57599;SDS011;43426;43.594;24.334;2023-07-09T00:01:26;7.25;;;4.80;;
57599;SDS011;43426;43.594;24.334;2023-07-09T00:06:18;4.35;;;4.05;;
57599;SDS011;43426;43.594;24.334;2023-07-09T00:08:45;4.43;;;3.92;;
57599;SDS011;43426;43.594;24.334;2023-07-09T00:11:14;5.43;;;4.22;;
57599;SDS011;43426;43.594;24.334;2023-07-09T00:13:41;4.80;;;4.20;;
57599;SDS011;43426;43.594;24.334;2023-07-09T00:18:41;4.57;;;4.13;;
57599;SDS011;43426;43.594;24.334;2023-07-09T00:21:09;4.57;;;4.18;;
57599;SDS011;43426;43.594;24.334;2023-07-09T00:23:38;5.82;;;4.00;;
57599;SDS011;43426;43.594;24.334;2023-07-09T00:26:11;4.30;;;4.00;;
57599;SDS011;43426;43.594;24.334;2023-07-09T00:28:41;4.60;;;4.20;;
57599;SDS011;43426;43.594;24.334;2023-07-09T00:31:10;4.85;;;3.95;;
57599;SDS011;43426;43.594;24.334;2023-07-09T00:33:41;4.97;;;4.38;;
57599;SDS011;43426;43.594;24.334;2023-07-09T00:36:15;4.78;;;4.28;;
57599;SDS011;43426;43.594;24.334;2023-07-09T00:38:43;3.97;;;3.67;;
57599;SDS011;43426;43.594;24.334;2023-07-09T00:41:16;4.65;;;4.20;;
57599;SDS011;43426;43.594;24.334;2023-07-09T00:43:44;4.18;;;3.88;;
57599;SDS011;43426;43.594;24.334;2023-07-09T00:48:46;3.90;;;3.53;;
57599;SDS011;43426;43.594;24.334;2023-07-09T00:51:19;4.65;;;4.25;;
57599;SDS011;43426;43.594;24.334;2023-07-09T00:53:51;4.63;;;4.20;;
57599;SDS011;43426;43.594;24.334;2023-07-09T00:58:59;4.28;;;3.55;;
57599;SDS011;43426;43.594;24.334;2023-07-09T01:01:32;6.60;;;3.90;;
57599;SDS011;43426;43.594;24.334;2023-07-09T01:03:59;4.70;;;4.30;;
57599;SDS011;43426;43.594;24.334;2023-07-09T01:09:10;4.53;;;4.20;;
57599;SDS011;43426;43.594;24.334;2023-07-09T01:16:31;3.88;;;3.50;;
57599;SDS011;43426;43.594;24.334;2023-07-09T01:19:30;5.03;;;4.50;;
57599;SDS011;43426;43.594;24.334;2023-07-09T01:22:15;4.32;;;3.97;;
57599;SDS011;43426;43.594;24.334;2023-07-09T01:27:18;4.45;;;3.83;;
57599;SDS011;43426;43.594;24.334;2023-07-09T01:29:47;4.45;;;4.05;;
57599;SDS011;43426;43.594;24.334;2023-07-09T01:32:19;4.25;;;3.92;;
57599;SDS011;43426;43.594;24.334;2023-07-09T01:34:49;4.35;;;4.05;;
57599;SDS011;43426;43.594;24.334;2023-07-09T01:37:20;4.40;;;4.05;;
57599;SDS011;43426;43.594;24.334;2023-07-09T01:39:54;4.72;;;4.20;;
57599;SDS011;43426;43.594;24.334;2023-07-09T01:42:25;4.88;;;4.55;;
57599;SDS011;43426;43.594;24.334;2023-07-09T01:44:54;4.53;;;4.13;;
57599;SDS011;43426;43.594;24.334;2023-07-09T01:47:22;4.38;;;4.07;;
57599;SDS011;43426;43.594;24.334;2023-07-09T01:49:50;7.28;;;3.97;;
57599;SDS011;43426;43.594;24.334;2023-07-09T01:52:16;5.43;;;3.75;;
57599;SDS011;43426;43.594;24.334;2023-07-09T01:54:44;4.60;;;3.60;;
57599;SDS011;43426;43.594;24.334;2023-07-09T01:57:32;4.22;;;3.92;;
57599;SDS011;43426;43.594;24.334;2023-07-09T02:00:02;6.05;;;3.58;;
57599;SDS011;43426;43.594;24.334;2023-07-09T02:02:30;4.43;;;4.03;;
57599;SDS011;43426;43.594;24.334;2023-07-09T02:05:01;3.97;;;3.65;;
57599;SDS011;43426;43.594;24.334;2023-07-09T02:09:52;5.65;;;4.07;;
57599;SDS011;43426;43.594;24.334;2023-07-09T02:12:20;4.72;;;3.78;;
57599;SDS011;43426;43.594;24.334;2023-07-09T02:17:13;4.20;;;3.90;;
57599;SDS011;43426;43.594;24.334;2023-07-09T02:19:45;4.22;;;3.92;;
57599;SDS011;43426;43.594;24.334;2023-07-09T02:22:16;3.88;;;3.40;;
57599;SDS011;43426;43.594;24.334;2023-07-09T02:24:48;4.50;;;4.20;;
57599;SDS011;43426;43.594;24.334;2023-07-09T02:29:41;6.10;;;3.72;;
57599;SDS011;43426;43.594;24.334;2023-07-09T02:32:09;4.40;;;4.00;;
57599;SDS011;43426;43.594;24.334;2023-07-09T02:34:42;4.97;;;4.57;;
57599;SDS011;43426;43.594;24.334;2023-07-09T02:37:16;4.88;;;4.47;;
57599;SDS011;43426;43.594;24.334;2023-07-09T02:39:47;4.60;;;4.20;;
57599;SDS011;43426;43.594;24.334;2023-07-09T02:42:14;4.18;;;3.88;;
57599;SDS011;43426;43.594;24.334;2023-07-09T02:44:41;5.10;;;4.60;;
57599;SDS011;43426;43.594;24.334;2023-07-09T02:47:07;6.78;;;4.03;;
57599;SDS011;43426;43.594;24.334;2023-07-09T02:49:38;4.35;;;4.05;;
57599;SDS011;43426;43.594;24.334;2023-07-09T02:52:09;4.82;;;4.47;;
57599;SDS011;43426;43.594;24.334;2023-07-09T02:54:39;4.72;;;4.43;;
57599;SDS011;43426;43.594;24.334;2023-07-09T02:57:05;4.68;;;4.28;;
57599;SDS011;43426;43.594;24.334;2023-07-09T02:59:36;8.20;;;4.57;;
57599;SDS011;43426;43.594;24.334;2023-07-09T03:02:04;4.65;;;4.25;;
57599;SDS011;43426;43.594;24.334;2023-07-09T03:06:56;4.72;;;4.32;;
57599;SDS011;43426;43.594;24.334;2023-07-09T03:11:47;6.60;;;3.92;;
57599;SDS011;43426;43.594;24.334;2023-07-09T03:14:17;4.90;;;4.50;;
57599;SDS011;43426;43.594;24.334;2023-07-09T03:16:42;5.10;;;4.70;;
57599;SDS011;43426;43.594;24.334;2023-07-09T03:21:34;4.93;;;4.53;;
57599;SDS011;43426;43.594;24.334;2023-07-09T03:24:03;5.40;;;5.00;;
57599;SDS011;43426;43.594;24.334;2023-07-09T03:26:40;6.72;;;4.93;;
57599;SDS011;43426;43.594;24.334;2023-07-09T03:31:30;4.90;;;4.50;;
57599;SDS011;43426;43.594;24.334;2023-07-09T03:33:59;6.25;;;4.43;;
57599;SDS011;43426;43.594;24.334;2023-07-09T03:36:28;6.65;;;4.90;;
57599;SDS011;43426;43.594;24.334;2023-07-09T03:41:21;5.28;;;4.88;;
57599;SDS011;43426;43.594;24.334;2023-07-09T03:43:52;5.38;;;4.95;;
57599;SDS011;43426;43.594;24.334;2023-07-09T03:48:44;5.40;;;4.90;;
57599;SDS011;43426;43.594;24.334;2023-07-09T03:53:37;6.15;;;5.65;;
57599;SDS011;43426;43.594;24.334;2023-07-09T03:56:08;14.32;;;5.70;;
57599;SDS011;43426;43.594;24.334;2023-07-09T04:01:03;5.85;;;5.35;;
57599;SDS011;43426;43.594;24.334;2023-07-09T04:03:33;6.20;;;5.70;;
57599;SDS011;43426;43.594;24.334;2023-07-09T04:05:59;7.30;;;5.35;;
57599;SDS011;43426;43.594;24.334;2023-07-09T04:10:58;6.03;;;5.53;;
57599;SDS011;43426;43.594;24.334;2023-07-09T04:13:25;5.70;;;5.28;;
57599;SDS011;43426;43.594;24.334;2023-07-09T04:15:54;7.00;;;5.32;;
57599;SDS011;43426;43.594;24.334;2023-07-09T04:18:20;6.32;;;5.50;;
57599;SDS011;43426;43.594;24.334;2023-07-09T04:20:48;5.68;;;5.20;;
57599;SDS011;43426;43.594;24.334;2023-07-09T04:23:15;5.40;;;5.00;;
57599;SDS011;43426;43.594;24.334;2023-07-09T04:25:43;11.13;;;5.13;;
57599;SDS011;43426;43.594;24.334;2023-07-09T04:30:48;5.30;;;4.95;;
57599;SDS011;43426;43.594;24.334;2023-07-09T04:33:17;5.05;;;4.70;;
57599;SDS011;43426;43.594;24.334;2023-07-09T04:35:48;5.28;;;4.78;;
57599;SDS011;43426;43.594;24.334;2023-07-09T04:38:16;5.80;;;5.40;;
57599;SDS011;43426;43.594;24.334;2023-07-09T04:40:47;5.32;;;4.93;;
57599;SDS011;43426;43.594;24.334;2023-07-09T04:43:15;4.97;;;4.38;;
57599;SDS011;43426;43.594;24.334;2023-07-09T04:45:43;4.93;;;4.53;;
57599;SDS011;43426;43.594;24.334;2023-07-09T04:48:12;4.88;;;4.47;;
57599;SDS011;43426;43.594;24.334;2023-07-09T04:50:43;5.03;;;4.63;;
57599;SDS011;43426;43.594;24.334;2023-07-09T04:53:15;5.35;;;4.95;;
57599;SDS011;43426;43.594;24.334;2023-07-09T04:55:45;4.93;;;4.53;;
57599;SDS011;43426;43.594;24.334;2023-07-09T04:58:12;6.15;;;4.72;;
57599;SDS011;43426;43.594;24.334;2023-07-09T05:00:38;5.63;;;4.60;;
57599;SDS011;43426;43.594;24.334;2023-07-09T05:03:03;7.72;;;4.80;;
57599;SDS011;43426;43.594;24.334;2023-07-09T05:05:34;5.45;;;4.65;;
57599;SDS011;43426;43.594;24.334;2023-07-09T05:08:06;5.05;;;4.65;;
57599;SDS011;43426;43.594;24.334;2023-07-09T05:10:34;5.40;;;4.60;;
57599;SDS011;43426;43.594;24.334;2023-07-09T05:15:39;5.68;;;4.05;;
57599;SDS011;43426;43.594;24.334;2023-07-09T05:18:08;5.50;;;4.95;;
57599;SDS011;43426;43.594;24.334;2023-07-09T05:20:36;4.95;;;4.55;;
57599;SDS011;43426;43.594;24.334;2023-07-09T05:23:10;5.10;;;4.40;;
57599;SDS011;43426;43.594;24.334;2023-07-09T05:25:38;4.53;;;4.10;;
57599;SDS011;43426;43.594;24.334;2023-07-09T05:28:06;4.45;;;4.07;;
57599;SDS011;43426;43.594;24.334;2023-07-09T05:30:32;4.50;;;4.10;;
57599;SDS011;43426;43.594;24.334;2023-07-09T05:32:57;5.80;;;4.57;;
57599;SDS011;43426;43.594;24.334;2023-07-09T05:35:25;4.43;;;4.13;;
57599;SDS011;43426;43.594;24.334;2023-07-09T05:37:53;4.57;;;3.88;;
57599;SDS011;43426;43.594;24.334;2023-07-09T05:40:26;5.35;;;4.63;;
57599;SDS011;43426;43.594;24.334;2023-07-09T05:42:55;4.72;;;4.20;;
57599;SDS011;43426;43.594;24.334;2023-07-09T05:45:20;4.80;;;4.35;;
57599;SDS011;43426;43.594;24.334;2023-07-09T05:47:45;5.53;;;4.38;;
57599;SDS011;43426;43.594;24.334;2023-07-09T05:50:13;4.95;;;4.55;;
57599;SDS011;43426;43.594;24.334;2023-07-09T05:52:39;5.03;;;4.47;;
57599;SDS011;43426;43.594;24.334;2023-07-09T05:55:09;4.53;;;4.22;;
57599;SDS011;43426;43.594;24.334;2023-07-09T05:58:00;4.90;;;4.43;;
57599;SDS011;43426;43.594;24.334;2023-07-09T06:00:26;5.57;;;4.13;;
57599;SDS011;43426;43.594;24.334;2023-07-09T06:03:00;4.22;;;3.92;;
57599;SDS011;43426;43.594;24.334;2023-07-09T06:05:35;4.68;;;4.25;;
57599;SDS011;43426;43.594;24.334;2023-07-09T06:08:03;4.90;;;4.32;;
57599;SDS011;43426;43.594;24.334;2023-07-09T06:10:31;5.25;;;4.20;;
57599;SDS011;43426;43.594;24.334;2023-07-09T06:12:59;4.30;;;4.00;;
57599;SDS011;43426;43.594;24.334;2023-07-09T06:15:25;4.30;;;3.92;;
57599;SDS011;43426;43.594;24.334;2023-07-09T06:17:55;7.22;;;4.85;;
57599;SDS011;43426;43.594;24.334;2023-07-09T06:20:23;5.32;;;3.88;;
57599;SDS011;43426;43.594;24.334;2023-07-09T06:22:54;4.53;;;4.18;;
57599;SDS011;43426;43.594;24.334;2023-07-09T06:25:22;4.15;;;3.75;;
57599;SDS011;43426;43.594;24.334;2023-07-09T06:27:50;8.60;;;4.18;;
57599;SDS011;43426;43.594;24.334;2023-07-09T06:30:16;4.70;;;4.30;;
57599;SDS011;43426;43.594;24.334;2023-07-09T06:32:44;4.35;;;3.63;;
57599;SDS011;43426;43.594;24.334;2023-07-09T06:35:10;5.22;;;3.40;;
57599;SDS011;43426;43.594;24.334;2023-07-09T06:37:38;3.58;;;3.28;;
57599;SDS011;43426;43.594;24.334;2023-07-09T06:40:06;3.97;;;3.65;;
57599;SDS011;43426;43.594;24.334;2023-07-09T06:42:33;4.50;;;3.75;;
57599;SDS011;43426;43.594;24.334;2023-07-09T06:44:59;4.35;;;3.55;;
57599;SDS011;43426;43.594;24.334;2023-07-09T06:47:29;3.97;;;3.67;;
57599;SDS011;43426;43.594;24.334;2023-07-09T06:49:57;5.72;;;3.78;;
57599;SDS011;43426;43.594;24.334;2023-07-09T06:52:23;4.18;;;3.88;;
57599;SDS011;43426;43.594;24.334;2023-07-09T06:54:48;4.82;;;3.58;;
57599;SDS011;43426;43.594;24.334;2023-07-09T06:57:19;4.15;;;3.83;;
57599;SDS011;43426;43.594;24.334;2023-07-09T06:59:51;3.88;;;3.45;;
57599;SDS011;43426;43.594;24.334;2023-07-09T07:02:17;3.67;;;3.38;;
57599;SDS011;43426;43.594;24.334;2023-07-09T07:04:45;4.03;;;3.72;;
57599;SDS011;43426;43.594;24.334;2023-07-09T07:07:13;3.50;;;3.20;;
57599;SDS011;43426;43.594;24.334;2023-07-09T07:09:41;5.93;;;3.92;;
57599;SDS011;43426;43.594;24.334;2023-07-09T07:12:07;3.85;;;3.55;;
57599;SDS011;43426;43.594;24.334;2023-07-09T07:14:35;4.50;;;4.00;;
57599;SDS011;43426;43.594;24.334;2023-07-09T07:17:01;4.05;;;3.53;;
57599;SDS011;43426;43.594;24.334;2023-07-09T07:19:27;3.72;;;3.42;;
57599;SDS011;43426;43.594;24.334;2023-07-09T07:21:58;3.88;;;3.47;;
57599;SDS011;43426;43.594;24.334;2023-07-09T07:24:26;3.70;;;3.40;;
57599;SDS011;43426;43.594;24.334;2023-07-09T07:26:54;4.75;;;3.67;;
57599;SDS011;43426;43.594;24.334;2023-07-09T07:29:26;3.80;;;3.47;;
57599;SDS011;43426;43.594;24.334;2023-07-09T07:31:57;5.13;;;3.33;;
57599;SDS011;43426;43.594;24.334;2023-07-09T07:34:25;5.68;;;3.00;;
57599;SDS011;43426;43.594;24.334;2023-07-09T07:36:51;3.17;;;2.97;;
57599;SDS011;43426;43.594;24.334;2023-07-09T07:39:16;5.60;;;3.33;;
57599;SDS011;43426;43.594;24.334;2023-07-09T07:41:44;3.80;;;3.45;;
57599;SDS011;43426;43.594;24.334;2023-07-09T07:44:16;3.72;;;3.42;;
57599;SDS011;43426;43.594;24.334;2023-07-09T07:46:42;3.83;;;3.53;;
57599;SDS011;43426;43.594;24.334;2023-07-09T07:49:08;4.45;;;2.42;;
57599;SDS011;43426;43.594;24.334;2023-07-09T07:51:41;3.20;;;2.50;;
57599;SDS011;43426;43.594;24.334;2023-07-09T07:54:07;3.13;;;2.90;;
57599;SDS011;43426;43.594;24.334;2023-07-09T07:56:35;2.47;;;2.28;;
57599;SDS011;43426;43.594;24.334;2023-07-09T07:59:05;3.10;;;2.70;;
57599;SDS011;43426;43.594;24.334;2023-07-09T08:01:31;3.30;;;3.00;;
57599;SDS011;43426;43.594;24.334;2023-07-09T08:04:00;3.65;;;2.33;;
57599;SDS011;43426;43.594;24.334;2023-07-09T08:06:28;3.22;;;3.00;;
57599;SDS011;43426;43.594;24.334;2023-07-09T08:08:56;5.32;;;3.28;;
57599;SDS011;43426;43.594;24.334;2023-07-09T08:11:22;4.95;;;2.95;;
57599;SDS011;43426;43.594;24.334;2023-07-09T08:13:50;4.13;;;3.72;;
57599;SDS011;43426;43.594;24.334;2023-07-09T08:16:21;3.42;;;2.58;;
57599;SDS011;43426;43.594;24.334;2023-07-09T08:18:47;2.97;;;2.78;;
57599;SDS011;43426;43.594;24.334;2023-07-09T08:21:12;3.95;;;2.63;;
57599;SDS011;43426;43.594;24.334;2023-07-09T08:23:40;2.88;;;2.67;;
57599;SDS011;43426;43.594;24.334;2023-07-09T08:26:13;3.03;;;2.72;;
57599;SDS011;43426;43.594;24.334;2023-07-09T08:28:42;3.30;;;3.00;;
57599;SDS011;43426;43.594;24.334;2023-07-09T08:31:12;3.20;;;1.95;;
57599;SDS011;43426;43.594;24.334;2023-07-09T08:33:40;2.60;;;1.65;;
57599;SDS011;43426;43.594;24.334;2023-07-09T08:36:11;2.30;;;1.67;;
57599;SDS011;43426;43.594;24.334;2023-07-09T08:38:39;2.83;;;1.65;;
57599;SDS011;43426;43.594;24.334;2023-07-09T08:41:08;1.73;;;1.63;;
57599;SDS011;43426;43.594;24.334;2023-07-09T08:46:20;2.65;;;1.65;;
57599;SDS011;43426;43.594;24.334;2023-07-09T08:49:02;1.52;;;1.42;;
57599;SDS011;43426;43.594;24.334;2023-07-09T08:51:38;2.13;;;1.92;;
57599;SDS011;43426;43.594;24.334;2023-07-09T08:54:14;3.40;;;1.98;;
57599;SDS011;43426;43.594;24.334;2023-07-09T08:56:52;1.70;;;1.60;;
57599;SDS011;43426;43.594;24.334;2023-07-09T08:59:21;3.05;;;1.73;;
57599;SDS011;43426;43.594;24.334;2023-07-09T09:01:50;3.20;;;2.00;;
57599;SDS011;43426;43.594;24.334;2023-07-09T09:04:29;3.17;;;1.50;;
57599;SDS011;43426;43.594;24.334;2023-07-09T09:10:10;1.63;;;1.40;;
57599;SDS011;43426;43.594;24.334;2023-07-09T09:15:21;2.42;;;1.67;;
57599;SDS011;43426;43.594;24.334;2023-07-09T09:17:57;2.63;;;1.80;;
57599;SDS011;43426;43.594;24.334;2023-07-09T09:20:45;1.77;;;1.33;;
57599;SDS011;43426;43.594;24.334;2023-07-09T09:23:18;1.52;;;1.42;;
57599;SDS011;43426;43.594;24.334;2023-07-09T09:25:55;1.73;;;1.27;;
57599;SDS011;43426;43.594;24.334;2023-07-09T09:28:27;2.03;;;1.83;;
57599;SDS011;43426;43.594;24.334;2023-07-09T09:31:02;2.72;;;1.60;;
57599;SDS011;43426;43.594;24.334;2023-07-09T09:33:36;2.92;;;1.60;;
57599;SDS011;43426;43.594;24.334;2023-07-09T09:36:42;1.70;;;1.60;;
57599;SDS011;43426;43.594;24.334;2023-07-09T09:39:02;3.47;;;1.42;;
57599;SDS011;43426;43.594;24.334;2023-07-09T09:41:34;2.53;;;1.70;;
57599;SDS011;43426;43.594;24.334;2023-07-09T09:44:02;2.08;;;1.70;;
57599;SDS011;43426;43.594;24.334;2023-07-09T09:46:33;3.22;;;2.10;;
57599;SDS011;43426;43.594;24.334;2023-07-09T09:49:00;3.20;;;2.15;;
57599;SDS011;43426;43.594;24.334;2023-07-09T09:51:29;3.45;;;1.95;;
57599;SDS011;43426;43.594;24.334;2023-07-09T09:53:58;2.70;;;2.10;;
57599;SDS011;43426;43.594;24.334;2023-07-09T09:56:34;2.13;;;1.92;;
57599;SDS011;43426;43.594;24.334;2023-07-09T09:59:02;1.63;;;1.52;;
57599;SDS011;43426;43.594;24.334;2023-07-09T10:01:31;2.22;;;2.03;;
57599;SDS011;43426;43.594;24.334;2023-07-09T10:04:03;2.63;;;1.85;;
57599;SDS011;43426;43.594;24.334;2023-07-09T10:06:40;3.42;;;2.20;;
57599;SDS011;43426;43.594;24.334;2023-07-09T10:09:37;1.90;;;1.80;;
57599;SDS011;43426;43.594;24.334;2023-07-09T10:12:37;3.25;;;1.75;;
57599;SDS011;43426;43.594;24.334;2023-07-09T10:15:28;2.17;;;1.90;;
57599;SDS011;43426;43.594;24.334;2023-07-09T10:20:47;4.40;;;2.20;;
57599;SDS011;43426;43.594;24.334;2023-07-09T10:23:56;2.33;;;2.13;;
57599;SDS011;43426;43.594;24.334;2023-07-09T10:26:45;2.50;;;1.95;;
57599;SDS011;43426;43.594;24.334;2023-07-09T10:29:34;2.92;;;1.75;;
57599;SDS011;43426;43.594;24.334;2023-07-09T10:32:21;3.08;;;1.77;;
57599;SDS011;43426;43.594;24.334;2023-07-09T10:41:11;2.08;;;1.98;;
57599;SDS011;43426;43.594;24.334;2023-07-09T10:44:04;2.13;;;2.03;;
57599;SDS011;43426;43.594;24.334;2023-07-09T10:46:26;9.20;;;2.13;;
57599;SDS011;43426;43.594;24.334;2023-07-09T10:48:57;1.95;;;1.85;;
57599;SDS011;43426;43.594;24.334;2023-07-09T10:51:38;2.15;;;2.05;;
57599;SDS011;43426;43.594;24.334;2023-07-09T10:56:54;3.28;;;1.85;;
57599;SDS011;43426;43.594;24.334;2023-07-09T10:59:29;3.03;;;1.75;;
57599;SDS011;43426;43.594;24.334;2023-07-09T11:01:58;3.70;;;1.85;;
57599;SDS011;43426;43.594;24.334;2023-07-09T11:04:36;2.83;;;1.80;;
57599;SDS011;43426;43.594;24.334;2023-07-09T11:07:09;2.13;;;1.98;;
57599;SDS011;43426;43.594;24.334;2023-07-09T11:09:44;5.75;;;1.92;;
57599;SDS011;43426;43.594;24.334;2023-07-09T11:12:13;1.92;;;1.83;;
57599;SDS011;43426;43.594;24.334;2023-07-09T11:17:18;3.15;;;1.65;;
57599;SDS011;43426;43.594;24.334;2023-07-09T11:19:53;1.95;;;1.80;;
57599;SDS011;43426;43.594;24.334;2023-07-09T11:22:38;3.38;;;2.20;;
57599;SDS011;43426;43.594;24.334;2023-07-09T11:25:13;3.63;;;1.92;;
57599;SDS011;43426;43.594;24.334;2023-07-09T11:27:52;1.98;;;1.88;;
57599;SDS011;43426;43.594;24.334;2023-07-09T11:32:58;3.75;;;1.88;;
57599;SDS011;43426;43.594;24.334;2023-07-09T11:35:28;4.82;;;2.25;;
57599;SDS011;43426;43.594;24.334;2023-07-09T11:37:55;1.88;;;1.67;;
57599;SDS011;43426;43.594;24.334;2023-07-09T11:40:24;4.07;;;2.25;;
57599;SDS011;43426;43.594;24.334;2023-07-09T11:42:55;4.63;;;1.90;;
57599;SDS011;43426;43.594;24.334;2023-07-09T11:45:31;2.35;;;2.08;;
57599;SDS011;43426;43.594;24.334;2023-07-09T11:48:05;1.90;;;1.80;;
57599;SDS011;43426;43.594;24.334;2023-07-09T11:50:54;4.32;;;2.15;;
57599;SDS011;43426;43.594;24.334;2023-07-09T11:53:31;2.40;;;2.20;;
57599;SDS011;43426;43.594;24.334;2023-07-09T11:56:03;2.83;;;1.83;;
57599;SDS011;43426;43.594;24.334;2023-07-09T11:58:29;2.45;;;2.20;;
57599;SDS011;43426;43.594;24.334;2023-07-09T12:00:55;2.10;;;1.95;;
57599;SDS011;43426;43.594;24.334;2023-07-09T12:03:24;2.80;;;2.03;;
57599;SDS011;43426;43.594;24.334;2023-07-09T12:05:53;2.40;;;2.13;;
57599;SDS011;43426;43.594;24.334;2023-07-09T12:08:37;2.30;;;2.20;;
57599;SDS011;43426;43.594;24.334;2023-07-09T12:11:16;2.28;;;2.08;;
57599;SDS011;43426;43.594;24.334;2023-07-09T12:14:04;2.47;;;1.85;;
57599;SDS011;43426;43.594;24.334;2023-07-09T12:16:35;2.10;;;1.90;;
57599;SDS011;43426;43.594;24.334;2023-07-09T12:19:02;3.20;;;1.70;;
57599;SDS011;43426;43.594;24.334;2023-07-09T12:21:29;1.88;;;1.77;;
57599;SDS011;43426;43.594;24.334;2023-07-09T12:23:56;2.35;;;2.00;;
57599;SDS011;43426;43.594;24.334;2023-07-09T12:26:22;2.72;;;1.60;;
57599;SDS011;43426;43.594;24.334;2023-07-09T12:28:54;3.55;;;2.00;;
57599;SDS011;43426;43.594;24.334;2023-07-09T12:31:26;3.13;;;1.55;;
57599;SDS011;43426;43.594;24.334;2023-07-09T12:33:54;2.20;;;1.90;;
57599;SDS011;43426;43.594;24.334;2023-07-09T12:36:23;2.50;;;2.30;;
57599;SDS011;43426;43.594;24.334;2023-07-09T12:38:50;1.92;;;1.80;;
57599;SDS011;43426;43.594;24.334;2023-07-09T12:43:42;2.40;;;2.20;;
57599;SDS011;43426;43.594;24.334;2023-07-09T12:46:08;3.80;;;1.63;;
57599;SDS011;43426;43.594;24.334;2023-07-09T12:48:34;2.25;;;1.83;;
57599;SDS011;43426;43.594;24.334;2023-07-09T12:51:00;4.68;;;2.05;;
57599;SDS011;43426;43.594;24.334;2023-07-09T12:53:26;2.03;;;1.75;;
57599;SDS011;43426;43.594;24.334;2023-07-09T12:55:56;2.65;;;1.70;;
57599;SDS011;43426;43.594;24.334;2023-07-09T12:58:36;3.28;;;1.90;;
57599;SDS011;43426;43.594;24.334;2023-07-09T13:01:07;2.85;;;1.70;;
57599;SDS011;43426;43.594;24.334;2023-07-09T13:03:41;6.18;;;1.77;;
57599;SDS011;43426;43.594;24.334;2023-07-09T13:06:24;2.65;;;1.90;;
57599;SDS011;43426;43.594;24.334;2023-07-09T13:08:55;1.90;;;1.80;;
57599;SDS011;43426;43.594;24.334;2023-07-09T13:11:23;2.08;;;1.75;;
57599;SDS011;43426;43.594;24.334;2023-07-09T13:13:55;4.05;;;2.10;;
57599;SDS011;43426;43.594;24.334;2023-07-09T13:16:26;2.13;;;2.00;;
57599;SDS011;43426;43.594;24.334;2023-07-09T13:18:52;3.78;;;1.80;;
57599;SDS011;43426;43.594;24.334;2023-07-09T13:21:18;3.28;;;1.73;;
57599;SDS011;43426;43.594;24.334;2023-07-09T13:23:45;2.55;;;2.10;;
57599;SDS011;43426;43.594;24.334;2023-07-09T13:26:11;2.17;;;2.00;;
57599;SDS011;43426;43.594;24.334;2023-07-09T13:28:38;2.20;;;2.00;;
57599;SDS011;43426;43.594;24.334;2023-07-09T13:33:37;2.63;;;1.92;;
57599;SDS011;43426;43.594;24.334;2023-07-09T13:36:03;1.92;;;1.83;;
57599;SDS011;43426;43.594;24.334;2023-07-09T13:38:28;2.22;;;1.98;;
57599;SDS011;43426;43.594;24.334;2023-07-09T13:40:55;2.65;;;2.08;;
57599;SDS011;43426;43.594;24.334;2023-07-09T13:43:29;1.88;;;1.55;;
57599;SDS011;43426;43.594;24.334;2023-07-09T13:45:57;2.80;;;1.95;;
57599;SDS011;43426;43.594;24.334;2023-07-09T13:48:23;2.42;;;1.92;;
57599;SDS011;43426;43.594;24.334;2023-07-09T13:50:51;2.05;;;1.80;;
57599;SDS011;43426;43.594;24.334;2023-07-09T13:53:20;4.15;;;1.88;;
57599;SDS011;43426;43.594;24.334;2023-07-09T13:55:50;4.30;;;2.10;;
57599;SDS011;43426;43.594;24.334;2023-07-09T13:58:17;2.40;;;2.20;;
57599;SDS011;43426;43.594;24.334;2023-07-09T14:00:50;2.53;;;2.33;;
57599;SDS011;43426;43.594;24.334;2023-07-09T14:03:23;6.38;;;1.88;;
57599;SDS011;43426;43.594;24.334;2023-07-09T14:05:52;2.08;;;1.98;;
57599;SDS011;43426;43.594;24.334;2023-07-09T14:08:17;1.98;;;1.88;;
57599;SDS011;43426;43.594;24.334;2023-07-09T14:10:45;2.22;;;1.88;;
57599;SDS011;43426;43.594;24.334;2023-07-09T14:13:15;4.78;;;2.15;;
57599;SDS011;43426;43.594;24.334;2023-07-09T14:15:42;1.70;;;1.50;;
57599;SDS011;43426;43.594;24.334;2023-07-09T14:18:13;2.53;;;1.75;;
57599;SDS011;43426;43.594;24.334;2023-07-09T14:20:40;2.90;;;1.80;;
57599;SDS011;43426;43.594;24.334;2023-07-09T14:23:07;1.70;;;1.58;;
57599;SDS011;43426;43.594;24.334;2023-07-09T14:25:35;1.77;;;1.67;;
57599;SDS011;43426;43.594;24.334;2023-07-09T14:28:01;3.90;;;2.08;;
57599;SDS011;43426;43.594;24.334;2023-07-09T14:30:26;5.68;;;1.67;;
57599;SDS011;43426;43.594;24.334;2023-07-09T14:32:52;8.77;;;1.92;;
57599;SDS011;43426;43.594;24.334;2023-07-09T14:35:19;2.90;;;1.70;;
57599;SDS011;43426;43.594;24.334;2023-07-09T14:37:47;2.13;;;1.92;;
57599;SDS011;43426;43.594;24.334;2023-07-09T14:40:15;1.80;;;1.70;;
57599;SDS011;43426;43.594;24.334;2023-07-09T14:42:45;2.50;;;1.77;;
57599;SDS011;43426;43.594;24.334;2023-07-09T14:45:21;1.95;;;1.77;;
57599;SDS011;43426;43.594;24.334;2023-07-09T14:47:49;1.55;;;1.45;;
57599;SDS011;43426;43.594;24.334;2023-07-09T14:50:16;2.08;;;1.88;;
57599;SDS011;43426;43.594;24.334;2023-07-09T14:52:42;2.53;;;1.63;;
57599;SDS011;43426;43.594;24.334;2023-07-09T14:55:16;2.35;;;1.90;;
57599;SDS011;43426;43.594;24.334;2023-07-09T14:57:43;3.03;;;1.70;;
57599;SDS011;43426;43.594;24.334;2023-07-09T15:00:13;3.20;;;1.63;;
57599;SDS011;43426;43.594;24.334;2023-07-09T15:02:39;1.70;;;1.58;;
57599;SDS011;43426;43.594;24.334;2023-07-09T15:05:11;3.05;;;1.73;;
57599;SDS011;43426;43.594;24.334;2023-07-09T15:07:42;6.90;;;1.95;;
57599;SDS011;43426;43.594;24.334;2023-07-09T15:10:16;2.13;;;1.55;;
57599;SDS011;43426;43.594;24.334;2023-07-09T15:12:56;1.98;;;1.88;;
57599;SDS011;43426;43.594;24.334;2023-07-09T15:15:26;1.70;;;1.60;;
57599;SDS011;43426;43.594;24.334;2023-07-09T15:17:59;2.63;;;1.58;;
57599;SDS011;43426;43.594;24.334;2023-07-09T15:20:33;2.22;;;1.42;;
57599;SDS011;43426;43.594;24.334;2023-07-09T15:22:58;3.58;;;1.60;;
57599;SDS011;43426;43.594;24.334;2023-07-09T15:25:30;2.78;;;1.90;;
57599;SDS011;43426;43.594;24.334;2023-07-09T15:28:02;2.60;;;1.50;;
57599;SDS011;43426;43.594;24.334;2023-07-09T15:30:29;1.75;;;1.65;;
57599;SDS011;43426;43.594;24.334;2023-07-09T15:33:02;1.95;;;1.73;;
57599;SDS011;43426;43.594;24.334;2023-07-09T15:35:34;2.22;;;1.60;;
57599;SDS011;43426;43.594;24.334;2023-07-09T15:38:10;2.72;;;1.88;;
57599;SDS011;43426;43.594;24.334;2023-07-09T15:40:57;2.03;;;1.70;;
57599;SDS011;43426;43.594;24.334;2023-07-09T15:43:23;1.75;;;1.48;;
57599;SDS011;43426;43.594;24.334;2023-07-09T15:45:52;2.47;;;1.67;;
57599;SDS011;43426;43.594;24.334;2023-07-09T15:48:22;5.68;;;2.28;;
57599;SDS011;43426;43.594;24.334;2023-07-09T15:50:56;17.65;;;7.53;;
57599;SDS011;43426;43.594;24.334;2023-07-09T15:53:22;4.03;;;3.40;;
57599;SDS011;43426;43.594;24.334;2023-07-09T15:55:47;3.22;;;2.72;;
57599;SDS011;43426;43.594;24.334;2023-07-09T15:58:21;2.20;;;2.00;;
57599;SDS011;43426;43.594;24.334;2023-07-09T16:00:56;5.72;;;2.15;;
57599;SDS011;43426;43.594;24.334;2023-07-09T16:03:24;1.90;;;1.70;;
57599;SDS011;43426;43.594;24.334;2023-07-09T16:05:52;1.90;;;1.80;;
57599;SDS011;43426;43.594;24.334;2023-07-09T16:08:20;4.65;;;1.65;;
57599;SDS011;43426;43.594;24.334;2023-07-09T16:10:48;3.78;;;1.95;;
57599;SDS011;43426;43.594;24.334;2023-07-09T16:13:23;2.13;;;1.65;;
57599;SDS011;43426;43.594;24.334;2023-07-09T16:15:49;3.70;;;2.03;;
57599;SDS011;43426;43.594;24.334;2023-07-09T16:18:15;6.22;;;1.90;;